Terminal Aerodrome Forecast
Issued by NWS

Home | Current Version | Previous Version | Text Only | Print | Product List | Glossary On
Versions: 1 2 3 4 5 6 7 8 9 10 11 12 13 14 15 16 17 18 19 20 21 22 23 24 25
000
FTUS44 KCRP 270828 AAA
TAFALI
TAF AMD
KALI 270828Z 2708/2806 17012KT 5SM BR OVC013
     FM270900 VRB03KT 5SM BR VCSH SCT009 BKN012
     FM271200 34012G18KT P6SM BKN020
     FM271500 33015KT P6SM SCT035
     FM280100 VRB03KT P6SM SKC=

USA.gov is the U.S. government's official web portal to all federal, state and local government web resources and services.